Time;durP1;ratioP1;P1;durP2;ratioP2;P2;SDS_P1;SDS_P2;PMS_P1;PMS_P2;Temp;Humidity;BMP_temperature;BMP_pressure;BME280_temperature;BME280_humidity;BME280_pressure;Samples;Min_cycle;Max_cycle;Signal;HPM_P1;HPM_P2
2022/01/09 00:01:49;;;;;;;8.25;5.35;;;2.90;95.90;;;;;;4973243;28;20537;-65
2022/01/09 00:04:15;;;;;;;9.95;6.28;;;2.90;95.90;;;;;;4957038;28;20114;-64
2022/01/09 00:06:40;;;;;;;8.95;5.53;;;2.90;95.80;;;;;;4972384;28;20134;-65
2022/01/09 00:09:06;;;;;;;10.63;5.57;;;2.90;95.80;;;;;;4973474;28;20027;-65
2022/01/09 00:11:31;;;;;;;7.72;5.65;;;2.90;95.70;;;;;;4980755;28;20038;-65
2022/01/09 00:13:57;;;;;;;10.23;5.90;;;2.90;95.70;;;;;;4974245;28;20034;-65
2022/01/09 00:16:23;;;;;;;10.75;5.55;;;2.80;95.70;;;;;;4965368;28;20114;-64
2022/01/09 00:18:50;;;;;;;10.88;6.05;;;2.80;95.70;;;;;;4957004;28;20554;-64
2022/01/09 00:21:17;;;;;;;9.50;5.85;;;2.80;95.70;;;;;;4966045;28;20047;-64
2022/01/09 00:23:43;;;;;;;10.50;5.40;;;2.80;95.60;;;;;;4968154;28;20041;-65
2022/01/09 00:26:09;;;;;;;11.77;6.20;;;2.80;95.60;;;;;;4973815;28;20035;-65
2022/01/09 00:28:35;;;;;;;10.43;5.38;;;2.80;95.60;;;;;;4973409;28;20452;-65
2022/01/09 00:31:01;;;;;;;8.18;4.75;;;2.80;95.50;;;;;;4974177;28;20030;-65
2022/01/09 00:33:27;;;;;;;12.93;6.32;;;2.80;95.60;;;;;;4973506;28;20033;-64
2022/01/09 00:35:52;;;;;;;13.52;5.82;;;2.80;95.50;;;;;;4974164;28;20030;-64
2022/01/09 00:38:18;;;;;;;11.35;5.50;;;2.80;95.50;;;;;;4956880;28;20042;-64
2022/01/09 00:40:44;;;;;;;9.30;6.03;;;2.80;95.50;;;;;;4967273;28;20042;-64
2022/01/09 00:43:10;;;;;;;10.93;5.40;;;2.80;95.50;;;;;;4972585;28;20034;-64
2022/01/09 00:45:36;;;;;;;10.07;5.45;;;2.70;95.40;;;;;;4974370;28;20031;-64
2022/01/09 00:48:02;;;;;;;8.93;4.88;;;2.80;95.50;;;;;;4972751;28;20030;-64
2022/01/09 00:50:28;;;;;;;9.90;5.28;;;2.70;95.40;;;;;;4968745;28;20030;-64
2022/01/09 00:52:53;;;;;;;8.80;5.95;;;2.70;95.40;;;;;;4967022;28;20035;-64
2022/01/09 00:55:19;;;;;;;9.32;5.53;;;2.70;95.40;;;;;;4961387;28;20186;-64
2022/01/09 00:57:45;;;;;;;9.10;5.20;;;2.70;95.40;;;;;;4967573;28;20023;-64
2022/01/09 01:00:11;;;;;;;10.95;5.38;;;2.60;95.50;;;;;;4962374;28;20152;-65
2022/01/09 01:02:37;;;;;;;9.25;5.80;;;2.70;95.50;;;;;;4969112;28;20047;-65
2022/01/09 01:05:05;;;;;;;8.10;4.97;;;2.70;95.40;;;;;;4973078;28;20054;-65
2022/01/09 01:07:30;;;;;;;10.85;5.70;;;2.60;95.40;;;;;;4979838;28;20097;-65
2022/01/09 01:09:59;;;;;;;8.35;5.30;;;2.60;95.40;;;;;;4973268;28;20070;-64
2022/01/09 01:12:26;;;;;;;8.00;5.13;;;2.60;95.40;;;;;;4972789;28;20386;-65
2022/01/09 01:14:52;;;;;;;10.32;5.95;;;2.60;95.40;;;;;;4973378;28;20035;-65
2022/01/09 01:17:17;;;;;;;12.63;6.30;;;2.60;95.40;;;;;;4971800;28;20442;-65
2022/01/09 01:19:43;;;;;;;8.88;5.53;;;2.60;95.40;;;;;;4969389;28;20039;-64
2022/01/09 01:22:08;;;;;;;11.25;5.95;;;2.60;95.40;;;;;;4954802;28;20070;-65
2022/01/09 01:24:36;;;;;;;11.90;5.82;;;2.50;95.30;;;;;;4973383;28;20023;-64
2022/01/09 01:27:02;;;;;;;10.88;6.05;;;2.50;95.40;;;;;;4972224;28;20030;-65
2022/01/09 01:29:28;;;;;;;11.30;6.63;;;2.50;95.40;;;;;;4980142;28;20114;-65
2022/01/09 01:31:53;;;;;;;11.55;6.90;;;2.50;95.40;;;;;;4972772;28;20118;-65
2022/01/09 01:34:19;;;;;;;10.20;6.60;;;2.50;95.40;;;;;;4967059;28;20073;-64
2022/01/09 01:36:44;;;;;;;11.25;6.65;;;2.50;95.40;;;;;;4972885;28;20027;-65
2022/01/09 01:39:10;;;;;;;10.25;5.85;;;2.50;95.40;;;;;;4971925;28;20046;-64
2022/01/09 01:41:35;;;;;;;12.13;6.53;;;2.50;95.50;;;;;;4961821;28;20050;-65
2022/01/09 01:44:01;;;;;;;12.43;6.60;;;2.50;95.40;;;;;;4962984;28;20027;-64
2022/01/09 01:46:27;;;;;;;11.55;6.00;;;2.50;95.40;;;;;;4953782;28;20043;-64
2022/01/09 01:48:52;;;;;;;11.57;5.95;;;2.50;95.40;;;;;;4968130;28;20501;-64
2022/01/09 01:51:20;;;;;;;9.35;5.85;;;2.50;95.30;;;;;;4972092;28;20159;-64
2022/01/09 01:53:46;;;;;;;9.90;6.60;;;2.50;95.30;;;;;;4969073;28;20142;-64
2022/01/09 01:56:19;;;;;;;12.13;5.90;;;2.50;95.30;;;;;;4971228;28;20041;-65
2022/01/09 01:58:44;;;;;;;11.88;6.03;;;2.50;95.30;;;;;;4971491;28;20426;-65
2022/01/09 02:01:10;;;;;;;10.73;5.68;;;2.50;95.30;;;;;;4972386;28;20090;-64
2022/01/09 02:03:36;;;;;;;11.73;6.35;;;2.50;95.30;;;;;;4964114;28;20054;-64
2022/01/09 02:06:02;;;;;;;12.00;6.00;;;2.50;95.30;;;;;;4972386;28;20117;-64
2022/01/09 02:08:27;;;;;;;12.23;5.85;;;2.50;95.30;;;;;;4968698;28;20114;-64
2022/01/09 02:10:53;;;;;;;11.98;6.88;;;2.50;95.20;;;;;;4971111;28;20038;-64
2022/01/09 02:13:19;;;;;;;12.43;6.57;;;2.50;95.20;;;;;;4971637;28;20125;-64
2022/01/09 02:15:47;;;;;;;14.38;9.05;;;2.50;95.20;;;;;;4972242;28;20470;-64
2022/01/09 02:18:18;;;;;;;18.20;9.50;;;2.50;95.20;;;;;;4967431;28;20094;-64
2022/01/09 02:20:45;;;;;;;12.88;6.93;;;2.50;95.20;;;;;;4961580;28;20039;-64
2022/01/09 02:23:13;;;;;;;17.13;8.27;;;2.50;95.20;;;;;;4971637;28;20035;-64
2022/01/09 02:25:39;;;;;;;13.15;7.05;;;2.60;95.10;;;;;;4971228;28;20027;-64
2022/01/09 02:28:06;;;;;;;13.07;8.20;;;2.50;95.30;;;;;;4972624;28;20380;-64
2022/01/09 02:30:32;;;;;;;12.55;7.18;;;2.50;95.10;;;;;;4971673;28;20027;-64
2022/01/09 02:33:00;;;;;;;11.02;6.40;;;2.50;95.10;;;;;;4973230;28;20069;-63
2022/01/09 02:35:26;;;;;;;11.70;6.53;;;2.50;95.10;;;;;;4970556;28;20083;-64
2022/01/09 02:37:51;;;;;;;10.38;6.43;;;2.50;95.10;;;;;;4976173;28;20061;-64
2022/01/09 02:40:17;;;;;;;12.18;7.20;;;2.50;95.10;;;;;;4970677;28;20111;-64
2022/01/09 02:42:42;;;;;;;13.98;6.40;;;2.50;95.10;;;;;;4973128;28;20375;-64
2022/01/09 02:45:09;;;;;;;11.85;7.15;;;2.50;95.10;;;;;;4971634;28;20039;-64
2022/01/09 02:47:36;;;;;;;13.82;7.45;;;2.50;95.10;;;;;;4967585;28;20038;-65
2022/01/09 02:50:12;;;;;;;11.50;6.50;;;2.50;95.10;;;;;;4974105;28;20023;-65
2022/01/09 02:52:49;;;;;;;11.43;7.05;;;2.50;95.10;;;;;;4976286;28;20041;-65
2022/01/09 02:55:16;;;;;;;9.65;5.80;;;2.50;95.10;;;;;;4971538;28;20035;-65
2022/01/09 02:57:47;;;;;;;10.88;6.43;;;2.50;95.10;;;;;;4956668;29;20023;-65
2022/01/09 03:00:19;;;;;;;9.10;6.20;;;2.50;95.10;;;;;;4969538;28;20065;-65
2022/01/09 03:02:45;;;;;;;10.63;6.13;;;2.60;95.10;;;;;;4975638;28;20042;-65
2022/01/09 03:05:12;;;;;;;10.80;6.47;;;2.60;95.10;;;;;;4971919;28;20023;-65
2022/01/09 03:07:39;;;;;;;12.40;5.85;;;2.60;95.10;;;;;;4970545;28;20557;-65
2022/01/09 03:10:06;;;;;;;10.75;6.18;;;2.50;95.10;;;;;;4959466;28;20034;-65
2022/01/09 03:12:33;;;;;;;9.18;5.70;;;2.60;95.10;;;;;;4975753;28;20023;-65
2022/01/09 03:14:59;;;;;;;13.18;6.72;;;2.60;95.10;;;;;;4967140;28;20027;-65
2022/01/09 03:17:24;;;;;;;9.82;6.10;;;2.60;95.00;;;;;;4975229;28;20398;-65
2022/01/09 03:19:50;;;;;;;12.40;7.15;;;2.50;95.00;;;;;;4974608;28;20035;-65
2022/01/09 03:22:15;;;;;;;13.32;6.80;;;2.50;95.00;;;;;;4975565;28;20109;-65
2022/01/09 03:24:42;;;;;;;10.98;5.93;;;2.50;95.00;;;;;;4974389;28;20160;-65
2022/01/09 03:27:09;;;;;;;10.48;5.95;;;2.50;95.00;;;;;;4975612;28;20110;-65
2022/01/09 03:29:34;;;;;;;11.40;6.95;;;2.50;95.00;;;;;;4958502;28;20164;-65
2022/01/09 03:32:00;;;;;;;13.23;5.97;;;2.50;95.00;;;;;;4974576;28;20715;-65
2022/01/09 03:34:26;;;;;;;12.50;6.18;;;2.50;95.00;;;;;;4975230;28;20058;-65
2022/01/09 03:36:51;;;;;;;12.73;6.25;;;2.50;95.00;;;;;;4956993;28;20038;-65
2022/01/09 03:39:17;;;;;;;10.05;6.47;;;2.50;95.00;;;;;;4969618;28;20027;-65
2022/01/09 03:41:42;;;;;;;14.02;6.30;;;2.40;95.00;;;;;;4974421;28;20039;-65
2022/01/09 03:44:08;;;;;;;13.93;6.35;;;2.50;95.00;;;;;;4973566;28;20034;-65
2022/01/09 03:46:33;;;;;;;11.80;5.68;;;2.50;95.00;;;;;;4973537;28;20105;-65
2022/01/09 03:49:02;;;;;;;10.50;5.35;;;2.50;95.00;;;;;;4974857;28;20124;-65
2022/01/09 03:51:32;;;;;;;11.00;5.93;;;2.50;95.00;;;;;;4969842;28;20121;-65
2022/01/09 03:53:58;;;;;;;10.88;5.97;;;2.40;95.00;;;;;;4974032;28;20181;-65
2022/01/09 03:56:24;;;;;;;12.57;6.10;;;2.50;95.10;;;;;;4972254;28;20522;-65
2022/01/09 03:58:50;;;;;;;10.57;6.20;;;2.50;95.10;;;;;;4974422;28;20027;-65
2022/01/09 04:01:15;;;;;;;10.50;6.15;;;2.50;95.10;;;;;;4973842;28;20055;-64
2022/01/09 04:03:41;;;;;;;11.30;5.68;;;2.50;95.10;;;;;;4974821;28;20498;-65
2022/01/09 04:06:06;;;;;;;13.35;6.32;;;2.50;95.10;;;;;;4968716;28;20039;-65
2022/01/09 04:08:34;;;;;;;10.52;6.18;;;2.50;95.00;;;;;;4954692;28;20038;-65
2022/01/09 04:11:02;;;;;;;12.00;6.25;;;2.50;95.00;;;;;;4965895;28;20428;-65
2022/01/09 04:13:27;;;;;;;11.55;5.78;;;2.50;95.00;;;;;;4974084;28;20045;-65
2022/01/09 04:15:53;;;;;;;11.77;6.30;;;2.50;95.00;;;;;;4973760;28;20486;-65
2022/01/09 04:18:21;;;;;;;11.77;6.05;;;2.50;95.00;;;;;;4974702;28;20085;-65
2022/01/09 04:20:47;;;;;;;8.95;5.65;;;2.50;95.00;;;;;;4973834;28;20438;-65
2022/01/09 04:23:13;;;;;;;12.10;5.55;;;2.50;95.00;;;;;;4974138;28;20073;-65
2022/01/09 04:25:40;;;;;;;9.32;5.90;;;2.50;95.00;;;;;;4973578;28;20054;-65
2022/01/09 04:28:06;;;;;;;12.63;6.22;;;2.60;95.00;;;;;;4973560;28;20494;-65
2022/01/09 04:30:32;;;;;;;13.10;5.80;;;2.50;94.90;;;;;;4973410;28;20081;-65
2022/01/09 04:32:57;;;;;;;15.18;8.38;;;2.50;94.90;;;;;;4966862;28;20512;-65
2022/01/09 04:35:23;;;;;;;9.77;4.80;;;2.50;94.90;;;;;;4960619;28;20501;-64
2022/01/09 04:37:49;;;;;;;10.50;5.20;;;2.50;94.90;;;;;;4973762;28;20221;-65
2022/01/09 04:40:16;;;;;;;9.45;5.65;;;2.50;94.90;;;;;;4968652;28;20039;-65
2022/01/09 04:42:45;;;;;;;7.13;4.55;;;2.50;94.90;;;;;;4973278;28;20082;-65
2022/01/09 04:45:13;;;;;;;10.95;6.03;;;2.50;94.90;;;;;;4968404;28;20098;-65
2022/01/09 04:47:42;;;;;;;8.65;4.90;;;2.50;94.90;;;;;;4972953;28;20042;-65
2022/01/09 04:50:12;;;;;;;9.73;5.22;;;2.50;94.90;;;;;;4973165;28;20030;-64
2022/01/09 04:52:39;;;;;;;13.43;4.68;;;2.50;94.90;;;;;;4973737;28;20035;-65
2022/01/09 04:55:05;;;;;;;9.70;5.32;;;2.50;94.80;;;;;;4961723;28;20114;-65
2022/01/09 04:57:30;;;;;;;9.68;5.97;;;2.50;94.80;;;;;;4954347;28;20130;-65
2022/01/09 04:59:56;;;;;;;11.00;5.40;;;2.50;94.80;;;;;;4966585;28;20030;-64
2022/01/09 05:02:21;;;;;;;10.60;4.72;;;2.60;94.80;;;;;;4973066;28;20039;-65
2022/01/09 05:04:47;;;;;;;11.23;5.28;;;2.50;94.80;;;;;;4972713;28;20038;-64
2022/01/09 05:07:12;;;;;;;11.40;5.90;;;2.50;94.70;;;;;;4963007;28;20423;-65
2022/01/09 05:09:38;;;;;;;7.22;4.72;;;2.50;94.90;;;;;;4971393;28;20014;-65
2022/01/09 05:12:04;;;;;;;11.57;4.95;;;2.50;94.70;;;;;;4973004;28;20027;-65
2022/01/09 05:14:29;;;;;;;8.13;4.40;;;2.50;94.70;;;;;;4973282;28;20034;-65
2022/01/09 05:16:55;;;;;;;9.52;5.00;;;2.50;94.70;;;;;;4971324;28;20515;-65
2022/01/09 05:19:27;;;;;;;11.35;4.63;;;2.50;94.70;;;;;;4973244;28;20110;-65
2022/01/09 05:21:53;;;;;;;10.25;4.43;;;2.50;94.70;;;;;;4972172;28;20483;-65
2022/01/09 05:24:19;;;;;;;8.25;5.03;;;2.50;94.70;;;;;;4972758;28;20029;-65
2022/01/09 05:26:44;;;;;;;7.75;4.57;;;2.50;94.70;;;;;;4970766;28;20031;-65
2022/01/09 05:29:10;;;;;;;10.95;6.18;;;2.60;94.70;;;;;;4973202;28;20058;-65
2022/01/09 05:31:35;;;;;;;7.60;4.43;;;2.50;94.60;;;;;;4972338;28;20041;-65
2022/01/09 05:34:01;;;;;;;7.80;4.13;;;2.60;94.70;;;;;;4972620;28;20082;-65
2022/01/09 05:36:26;;;;;;;9.63;5.18;;;2.60;94.60;;;;;;4960482;28;20038;-65
2022/01/09 05:38:52;;;;;;;9.88;4.78;;;2.60;94.60;;;;;;4965207;28;20054;-65
2022/01/09 05:41:17;;;;;;;11.07;5.45;;;2.60;94.60;;;;;;4972310;28;20489;-65
2022/01/09 05:43:43;;;;;;;11.52;5.55;;;2.60;94.60;;;;;;4972946;28;20035;-64
2022/01/09 05:46:08;;;;;;;10.75;4.75;;;2.50;94.60;;;;;;4972416;28;20541;-65
2022/01/09 05:48:34;;;;;;;9.63;5.18;;;2.60;94.60;;;;;;4972724;28;20035;-64
2022/01/09 05:50:59;;;;;;;9.43;5.65;;;2.60;94.60;;;;;;4961448;28;20035;-65
2022/01/09 05:53:25;;;;;;;8.18;4.78;;;2.60;94.60;;;;;;4953396;28;20024;-65
2022/01/09 05:55:50;;;;;;;14.80;5.47;;;2.50;94.50;;;;;;4960466;28;20038;-65
2022/01/09 05:58:16;;;;;;;9.93;4.38;;;2.50;94.50;;;;;;4964919;28;20035;-64
2022/01/09 06:00:41;;;;;;;8.68;4.38;;;2.60;94.50;;;;;;4964195;28;20491;-63
2022/01/09 06:03:07;;;;;;;8.00;4.85;;;2.60;94.50;;;;;;4969999;28;20042;-65
2022/01/09 06:05:32;;;;;;;6.70;4.07;;;2.60;94.50;;;;;;4962199;28;20022;-64
2022/01/09 06:07:58;;;;;;;9.60;5.10;;;2.60;94.50;;;;;;4971451;28;20046;-64
2022/01/09 06:10:24;;;;;;;9.77;5.32;;;2.60;94.70;;;;;;4964646;28;20040;-66
2022/01/09 06:12:49;;;;;;;10.43;4.95;;;2.60;94.50;;;;;;4967414;28;20035;-66
2022/01/09 06:15:14;;;;;;;8.57;5.40;;;2.60;94.50;;;;;;4964157;28;20390;-66
2022/01/09 06:17:42;;;;;;;10.63;5.53;;;2.60;94.50;;;;;;4972009;28;20078;-66
2022/01/09 06:20:09;;;;;;;10.55;5.35;;;2.60;94.50;;;;;;4974242;28;20093;-67
2022/01/09 06:22:34;;;;;;;10.43;4.72;;;2.60;94.50;;;;;;4972221;28;20035;-66
2022/01/09 06:25:00;;;;;;;10.95;5.22;;;2.60;94.50;;;;;;4969686;28;20054;-66
2022/01/09 06:27:26;;;;;;;11.30;4.70;;;2.60;94.50;;;;;;4972391;28;20034;-66
2022/01/09 06:29:51;;;;;;;12.15;5.05;;;2.70;94.50;;;;;;4970196;28;20497;-66
2022/01/09 06:32:17;;;;;;;8.27;4.43;;;2.70;94.50;;;;;;4953663;28;20024;-66
2022/01/09 06:34:43;;;;;;;9.65;4.95;;;2.80;94.50;;;;;;4971150;28;20426;-66
2022/01/09 06:37:10;;;;;;;9.55;4.88;;;2.80;94.50;;;;;;4955402;28;20077;-66
2022/01/09 06:39:36;;;;;;;7.85;4.72;;;2.90;94.50;;;;;;4972270;28;20422;-66
2022/01/09 06:42:02;;;;;;;9.82;4.75;;;2.90;94.50;;;;;;4971858;28;20046;-66
2022/01/09 06:44:27;;;;;;;8.63;4.25;;;2.90;94.50;;;;;;4972246;28;20053;-67
2022/01/09 06:46:53;;;;;;;12.77;5.20;;;3.00;94.40;;;;;;4971019;28;20460;-66
2022/01/09 06:49:18;;;;;;;8.27;4.65;;;3.00;94.40;;;;;;4972140;28;20090;-67
2022/01/09 06:51:44;;;;;;;8.35;4.38;;;3.00;94.30;;;;;;4971098;28;20038;-67
2022/01/09 06:54:10;;;;;;;10.38;5.50;;;3.10;94.30;;;;;;4972262;28;20034;-65
2022/01/09 06:56:35;;;;;;;10.52;4.57;;;3.00;94.20;;;;;;4966081;28;20078;-65
2022/01/09 06:59:01;;;;;;;9.20;4.75;;;3.10;94.20;;;;;;4970707;28;20027;-65
2022/01/09 07:01:26;;;;;;;7.72;4.60;;;3.00;94.10;;;;;;4960356;28;20051;-64
2022/01/09 07:03:52;;;;;;;8.02;4.60;;;3.10;94.10;;;;;;4952730;28;20558;-66
2022/01/09 07:06:17;;;;;;;10.25;4.68;;;3.10;94.10;;;;;;4961039;28;20031;-65
2022/01/09 07:08:43;;;;;;;11.05;5.18;;;3.10;94.10;;;;;;4972087;28;20043;-66
2022/01/09 07:11:08;;;;;;;8.80;4.40;;;3.10;94.10;;;;;;4971309;28;20027;-66
2022/01/09 07:13:34;;;;;;;10.13;5.68;;;3.20;94.10;;;;;;4972042;28;20473;-66
2022/01/09 07:15:59;;;;;;;10.20;5.22;;;3.10;94.00;;;;;;4961231;28;20060;-66
2022/01/09 07:18:25;;;;;;;8.45;4.85;;;3.20;94.00;;;;;;4952972;28;20058;-66
2022/01/09 07:20:51;;;;;;;8.20;4.90;;;3.20;93.90;;;;;;4965312;28;20035;-66
2022/01/09 07:23:17;;;;;;;10.07;5.22;;;3.20;94.00;;;;;;4975665;28;20109;-67
2022/01/09 07:25:43;;;;;;;10.05;4.70;;;3.30;94.00;;;;;;4966359;28;20047;-66
2022/01/09 07:28:09;;;;;;;7.28;4.95;;;3.30;93.90;;;;;;4958155;28;20041;-66
2022/01/09 07:30:34;;;;;;;9.35;4.05;;;3.30;94.00;;;;;;4974810;28;20495;-66
2022/01/09 07:33:00;;;;;;;9.52;5.65;;;3.30;93.90;;;;;;4975219;28;20019;-66
2022/01/09 07:35:26;;;;;;;10.88;4.82;;;3.40;93.90;;;;;;4973746;28;20026;-66
2022/01/09 07:37:52;;;;;;;10.05;4.95;;;3.40;93.80;;;;;;4975020;28;20062;-66
2022/01/09 07:40:18;;;;;;;7.47;4.50;;;3.40;93.70;;;;;;4974323;28;20112;-66
2022/01/09 07:42:46;;;;;;;12.85;6.32;;;3.40;93.70;;;;;;4975074;28;20050;-66
2022/01/09 07:45:12;;;;;;;9.85;4.47;;;3.40;93.70;;;;;;4973577;28;20031;-66
2022/01/09 07:47:38;;;;;;;8.35;5.20;;;3.40;93.70;;;;;;4974339;28;20035;-64
2022/01/09 07:50:05;;;;;;;8.30;4.82;;;3.40;93.70;;;;;;4972386;28;20653;-63
2022/01/09 07:52:34;;;;;;;10.95;5.80;;;3.50;93.70;;;;;;4974577;28;20066;-63
2022/01/09 07:55:00;;;;;;;10.48;5.50;;;3.50;93.70;;;;;;4974268;28;20035;-63
2022/01/09 07:57:26;;;;;;;10.65;5.40;;;3.50;93.60;;;;;;4974790;28;20039;-63
2022/01/09 07:59:51;;;;;;;8.60;5.28;;;3.50;93.60;;;;;;4973150;28;20023;-63
2022/01/09 08:02:17;;;;;;;7.70;4.78;;;3.50;93.60;;;;;;4961994;28;20445;-63
2022/01/09 08:04:42;;;;;;;9.52;4.97;;;3.50;93.50;;;;;;4973136;28;20485;-63
2022/01/09 08:07:08;;;;;;;9.25;5.30;;;3.60;93.50;;;;;;4973489;28;20035;-63
2022/01/09 08:09:33;;;;;;;8.40;5.03;;;3.60;93.30;;;;;;4971943;28;20471;-64
2022/01/09 08:11:59;;;;;;;8.05;4.90;;;3.60;93.40;;;;;;4967658;28;20099;-63
2022/01/09 08:14:24;;;;;;;9.88;5.72;;;3.60;93.40;;;;;;4974730;28;20022;-63
2022/01/09 08:16:50;;;;;;;8.98;5.80;;;3.60;93.20;;;;;;4971447;28;20074;-63
2022/01/09 08:19:15;;;;;;;9.85;5.45;;;3.60;93.20;;;;;;4973340;28;20066;-63
2022/01/09 08:21:41;;;;;;;11.25;5.57;;;3.60;93.20;;;;;;4973426;28;20470;-63
2022/01/09 08:24:06;;;;;;;8.40;5.30;;;3.70;93.20;;;;;;4958188;28;20054;-62
2022/01/09 08:26:32;;;;;;;9.48;4.65;;;3.70;93.20;;;;;;4974037;28;20079;-63
2022/01/09 08:28:57;;;;;;;8.48;5.18;;;3.70;93.20;;;;;;4957532;28;20130;-63
2022/01/09 08:31:23;;;;;;;7.95;4.80;;;3.70;93.10;;;;;;4972017;28;20073;-63
2022/01/09 08:33:49;;;;;;;9.52;5.22;;;3.80;93.20;;;;;;4973817;28;20114;-63
2022/01/09 08:36:15;;;;;;;8.20;4.88;;;3.70;93.20;;;;;;4972255;28;20123;-63
2022/01/09 08:38:42;;;;;;;11.60;6.22;;;3.80;93.20;;;;;;4973103;28;20023;-63
2022/01/09 08:41:08;;;;;;;9.35;5.20;;;3.90;93.10;;;;;;4965715;28;20049;-63
2022/01/09 08:43:36;;;;;;;10.77;5.88;;;3.90;93.10;;;;;;4972733;28;20022;-64
2022/01/09 08:46:01;;;;;;;9.00;5.13;;;3.90;93.00;;;;;;4976183;28;20065;-64
2022/01/09 08:48:26;;;;;;;10.90;5.72;;;4.00;92.90;;;;;;4985982;28;20105;-64
2022/01/09 08:50:52;;;;;;;10.75;5.28;;;4.00;93.00;;;;;;4972682;28;20090;-64
2022/01/09 08:53:17;;;;;;;9.20;5.10;;;4.10;93.00;;;;;;4968415;28;20439;-64
2022/01/09 08:55:43;;;;;;;9.10;6.40;;;4.00;93.10;;;;;;4962076;28;20490;-64
2022/01/09 08:58:09;;;;;;;11.25;5.43;;;4.10;92.90;;;;;;4973057;28;20034;-64
2022/01/09 09:00:34;;;;;;;9.60;5.50;;;4.20;92.80;;;;;;4971680;28;20093;-64
2022/01/09 09:03:00;;;;;;;9.65;5.43;;;4.20;92.70;;;;;;4973374;28;20042;-64
2022/01/09 09:05:25;;;;;;;8.85;5.18;;;4.20;92.70;;;;;;4971412;28;20518;-64
2022/01/09 09:07:51;;;;;;;8.80;5.07;;;4.20;92.70;;;;;;4954182;28;20118;-64
2022/01/09 09:10:16;;;;;;;9.27;5.20;;;4.30;92.60;;;;;;4955339;28;20368;-64
2022/01/09 09:12:42;;;;;;;8.07;4.85;;;4.30;92.60;;;;;;4967680;28;20513;-64
2022/01/09 09:15:08;;;;;;;11.05;5.88;;;4.40;92.70;;;;;;4972518;28;20019;-66
2022/01/09 09:17:34;;;;;;;10.07;4.90;;;4.30;92.60;;;;;;4972725;28;20038;-67
2022/01/09 09:20:00;;;;;;;7.35;4.75;;;4.40;92.50;;;;;;4967480;28;20045;-68
2022/01/09 09:22:25;;;;;;;7.78;5.32;;;4.40;92.40;;;;;;4963266;28;20491;-68
2022/01/09 09:24:51;;;;;;;9.88;4.55;;;4.40;92.40;;;;;;4972219;28;20027;-68
2022/01/09 09:27:19;;;;;;;8.98;4.97;;;4.40;92.30;;;;;;4954011;29;20479;-68
2022/01/09 09:29:45;;;;;;;10.07;5.32;;;4.40;92.30;;;;;;4954167;28;20103;-68
2022/01/09 09:32:10;;;;;;;9.73;4.97;;;4.50;92.40;;;;;;4973100;28;20041;-68
2022/01/09 09:34:38;;;;;;;11.05;5.72;;;4.50;92.30;;;;;;4972819;28;20030;-68
2022/01/09 09:37:04;;;;;;;9.57;4.95;;;4.50;92.30;;;;;;4972519;28;20117;-68
2022/01/09 09:39:29;;;;;;;8.68;4.70;;;4.50;92.30;;;;;;4973126;28;20122;-68
2022/01/09 09:41:55;;;;;;;8.20;4.72;;;4.60;92.30;;;;;;4971381;28;20094;-68
2022/01/09 09:44:20;;;;;;;7.78;4.57;;;4.60;92.20;;;;;;4972424;28;20538;-68
2022/01/09 09:46:50;;;;;;;8.10;4.97;;;4.60;92.20;;;;;;4956358;28;20027;-68
2022/01/09 09:49:17;;;;;;;9.68;5.00;;;4.60;92.20;;;;;;4953637;28;20039;-66
2022/01/09 09:51:42;;;;;;;7.85;4.35;;;4.70;92.20;;;;;;4962421;28;20093;-67
2022/01/09 09:54:08;;;;;;;9.35;5.25;;;4.70;92.10;;;;;;4973183;28;20022;-68
2022/01/09 09:56:34;;;;;;;9.27;5.13;;;4.80;92.10;;;;;;4972025;28;20030;-69
2022/01/09 09:59:00;;;;;;;9.77;4.90;;;4.70;92.00;;;;;;4972935;28;20035;-68
2022/01/09 10:01:34;;;;;;;7.97;4.65;;;4.70;92.00;;;;;;4971516;28;20046;-69
2022/01/09 10:04:05;;;;;;;10.65;4.40;;;4.80;92.00;;;;;;4961840;28;20106;-69
2022/01/09 10:06:42;;;;;;;7.97;4.90;;;4.80;92.00;;;;;;4968237;28;20093;-69
2022/01/09 10:09:21;;;;;;;7.50;4.72;;;4.90;92.00;;;;;;4972648;28;20118;-68
2022/01/09 10:11:51;;;;;;;8.57;4.60;;;4.90;91.90;;;;;;4970226;28;20027;-68
2022/01/09 10:14:23;;;;;;;8.88;4.65;;;4.90;91.70;;;;;;4971309;28;20496;-68
2022/01/09 10:17:19;;;;;;;6.30;4.13;;;5.00;91.80;;;;;;4971671;28;20081;-69
2022/01/09 10:19:52;;;;;;;7.53;4.63;;;5.00;91.80;;;;;;4955326;28;20095;-68
2022/01/09 10:22:44;;;;;;;6.30;3.88;;;5.00;91.80;;;;;;4953125;28;20107;-69
2022/01/09 10:25:16;;;;;;;7.28;3.78;;;5.00;91.80;;;;;;4961336;28;20497;-69
2022/01/09 10:27:42;;;;;;;7.72;4.10;;;5.10;91.80;;;;;;4953260;29;20039;-68
2022/01/09 10:30:08;;;;;;;8.25;4.78;;;5.20;91.70;;;;;;4967649;28;20406;-68
2022/01/09 10:32:34;;;;;;;7.15;4.00;;;5.20;91.80;;;;;;4953454;28;20019;-67
2022/01/09 10:35:08;;;;;;;6.70;3.90;;;5.30;91.80;;;;;;4955181;28;20039;-68
2022/01/09 10:37:35;;;;;;;7.20;3.92;;;5.40;91.80;;;;;;4970198;28;20026;-67
2022/01/09 10:40:02;;;;;;;6.72;4.03;;;5.40;91.60;;;;;;4972103;28;20077;-69
2022/01/09 10:42:28;;;;;;;7.30;4.10;;;5.50;91.70;;;;;;4972181;28;20490;-68
2022/01/09 10:44:53;;;;;;;11.38;4.13;;;5.50;91.60;;;;;;4971945;28;20026;-67
2022/01/09 10:47:19;;;;;;;9.90;5.47;;;5.50;91.50;;;;;;4971805;28;20034;-67
2022/01/09 10:49:50;;;;;;;6.88;3.72;;;5.60;91.50;;;;;;4960754;28;20023;-69
2022/01/09 10:52:25;;;;;;;6.97;4.30;;;5.60;91.60;;;;;;4961065;28;20672;-69
2022/01/09 10:54:52;;;;;;;8.32;4.63;;;5.60;91.50;;;;;;4974453;28;20109;-69
2022/01/09 10:57:32;;;;;;;10.73;4.50;;;5.60;91.40;;;;;;4976153;28;20043;-69
2022/01/09 11:00:13;;;;;;;7.57;4.05;;;5.70;91.50;;;;;;4975404;28;20058;-68
2022/01/09 11:02:40;;;;;;;7.60;3.97;;;5.70;91.40;;;;;;4975667;28;20050;-69
2022/01/09 11:05:06;;;;;;;6.40;3.83;;;5.70;91.40;;;;;;4975838;28;20351;-69
2022/01/09 11:07:32;;;;;;;9.32;4.72;;;5.80;91.60;;;;;;4975782;28;20023;-69
2022/01/09 11:09:59;;;;;;;7.22;4.30;;;5.90;91.90;;;;;;4975396;28;20029;-69
2022/01/09 11:12:32;;;;;;;7.15;3.92;;;5.90;91.80;;;;;;4992764;28;20042;-68
2022/01/09 11:15:00;;;;;;;7.78;4.35;;;6.00;91.70;;;;;;4995234;28;20536;-69
2022/01/09 11:17:27;;;;;;;7.88;4.25;;;6.00;91.70;;;;;;4974019;28;20034;-69
2022/01/09 11:19:53;;;;;;;7.10;3.95;;;6.10;91.60;;;;;;4974954;28;20093;-69
2022/01/09 11:22:20;;;;;;;6.53;4.57;;;6.10;91.50;;;;;;4975342;28;20478;-69
2022/01/09 11:25:02;;;;;;;10.38;5.25;;;6.10;91.40;;;;;;4975248;28;20042;-68
2022/01/09 11:28:06;;;;;;;6.60;4.32;;;6.10;91.20;;;;;;4975659;28;20134;-69
2022/01/09 11:30:50;;;;;;;8.27;4.75;;;6.20;91.20;;;;;;4980368;28;20154;-68
2022/01/09 11:33:50;;;;;;;6.63;4.05;;;6.10;91.20;;;;;;4975896;28;20584;-69
2022/01/09 11:36:25;;;;;;;6.13;4.05;;;6.10;91.30;;;;;;4960871;28;20031;-69
2022/01/09 11:39:14;;;;;;;7.20;4.20;;;6.20;91.40;;;;;;4955803;29;20364;-69
2022/01/09 11:41:41;;;;;;;7.88;4.85;;;6.20;91.40;;;;;;4955787;29;20654;-70
2022/01/09 11:44:09;;;;;;;7.43;4.47;;;6.20;91.40;;;;;;4968082;28;20114;-69
2022/01/09 11:46:55;;;;;;;5.35;3.83;;;6.30;91.30;;;;;;4955852;28;20082;-69
2022/01/09 11:49:21;;;;;;;9.43;4.05;;;6.30;91.30;;;;;;4973486;28;20421;-70
2022/01/09 11:51:52;;;;;;;6.80;4.15;;;6.30;91.40;;;;;;4974563;28;20050;-70
2022/01/09 11:54:20;;;;;;;8.95;4.43;;;6.40;91.40;;;;;;4983081;28;20038;-69
2022/01/09 11:57:03;;;;;;;6.80;4.25;;;6.40;91.30;;;;;;4988071;28;20569;-68
2022/01/09 11:59:34;;;;;;;9.98;4.60;;;6.40;91.20;;;;;;4972789;28;20482;-68
2022/01/09 12:02:05;;;;;;;7.25;4.05;;;6.50;91.10;;;;;;4974314;28;20101;-68
2022/01/09 12:04:34;;;;;;;7.80;4.30;;;6.50;91.00;;;;;;4973835;28;20465;-68
2022/01/09 12:07:05;;;;;;;8.13;4.80;;;6.50;91.10;;;;;;4973681;28;20034;-67
2022/01/09 12:09:31;;;;;;;9.40;4.70;;;6.50;91.20;;;;;;4971180;28;20031;-68
2022/01/09 12:12:03;;;;;;;7.82;4.25;;;6.60;91.10;;;;;;4970099;28;20121;-68
2022/01/09 12:15:05;;;;;;;8.68;5.07;;;6.60;91.00;;;;;;4955202;28;20035;-68
2022/01/09 12:17:35;;;;;;;7.65;4.93;;;6.60;91.20;;;;;;4973979;28;20061;-69
2022/01/09 12:20:13;;;;;;;8.93;4.82;;;6.70;91.20;;;;;;4974307;28;20489;-69
2022/01/09 12:22:39;;;;;;;6.95;4.18;;;6.70;91.20;;;;;;4954946;28;20062;-69
2022/01/09 12:25:09;;;;;;;6.97;3.88;;;6.80;91.20;;;;;;4970683;28;20027;-69
2022/01/09 12:27:47;;;;;;;7.65;4.13;;;6.80;91.20;;;;;;4974306;28;20193;-70
2022/01/09 12:30:36;;;;;;;6.63;4.07;;;6.80;91.10;;;;;;4974122;28;20565;-68
2022/01/09 12:33:15;;;;;;;7.60;5.15;;;7.00;91.10;;;;;;4961189;28;20046;-70
2022/01/09 12:35:46;;;;;;;8.55;4.40;;;7.00;91.00;;;;;;4973410;28;20058;-67
2022/01/09 12:38:14;;;;;;;7.30;3.97;;;7.00;91.00;;;;;;4969255;28;20038;-68
2022/01/09 12:40:41;;;;;;;7.18;4.55;;;7.00;91.10;;;;;;4961908;28;20038;-67
2022/01/09 12:43:07;;;;;;;10.48;4.30;;;7.00;91.00;;;;;;4973163;28;20117;-67
2022/01/09 12:45:36;;;;;;;8.30;4.53;;;7.00;91.00;;;;;;4973278;28;20106;-67
2022/01/09 12:48:04;;;;;;;6.82;4.03;;;7.10;91.00;;;;;;4973984;28;20457;-67
2022/01/09 12:50:36;;;;;;;8.90;4.35;;;7.10;91.00;;;;;;4967159;28;20089;-68
2022/01/09 12:53:20;;;;;;;9.48;4.63;;;7.10;90.90;;;;;;4955103;28;20505;-68
2022/01/09 12:56:13;;;;;;;6.40;3.60;;;7.10;91.00;;;;;;4973093;28;20042;-68